Data for 01/27/2015

Time Sea-Level Adjusted Pressure Absolute Pressure Temperature Relative Humidity Dew Point   
(mb) (inHg) (mb) (inHg) (C) (F) (%) (C) (F)
00:05 1020 30.12 849 25.07 6.7 44.1 44 -4.6 23.6
00:10 1020 30.12 849 25.07 7.3 45.1 43 -4.6 23.8
00:15 1020 30.12 849 25.07 7.5 45.4 41 -5 23.1
00:20 1020 30.12 849 25.07 7.5 45.4 43 -4.2 24.4
00:25 1020 30.12 849 25.07 6.8 44.2 45 -4.3 24.2
00:30 1020 30.12 849 25.07 6.4 43.5 46 -4.4 24.1
00:35 1020 30.12 849 25.07 6.1 43 46 -4.5 23.8
00:40 1020 30.12 849 25.07 6.2 43.1 46 -4.5 23.8
00:45 1020 30.12 849 25.07 6.1 43 46 -4.7 23.5
00:50 1020 30.12 849 25.07 6.5 43.6 43 -5.2 22.7
00:55 1020 30.12 849 25.07 6.9 44.4 42 -5.2 22.6
01:00 1020 30.12 849 25.07 7.2 44.9 41 -5.1 22.8
01:05 1020 30.12 849 25.07 7.2 44.9 40 -5.3 22.4
01:10 1020 30.12 849 25.07 7.2 45 41 -5.3 22.5
01:15 1020 30.12 849 25.07 7.1 44.8 41 -5.4 22.3
01:20 1020 30.12 849 25.07 6.9 44.4 42 -5 22.9
01:25 1020 30.12 849 25.07 6.7 44.1 42 -5.2 22.6
01:30 1020 30.12 849 25.07 6.7 44.1 42 -5.3 22.4
01:35 1020 30.12 849 25.07 6.8 44.3 42 -5.1 22.9
01:40 1020 30.12 849 25.07 6.6 43.9 43 -5.1 22.9
01:45 1019 30.09 849 25.07 6.6 43.9 43 -5.1 22.8
01:50 1019 30.09 849 25.07 6.6 43.8 43 -5 23
01:55 1019 30.09 849 25.07 6.4 43.4 43 -5.2 22.6
02:00 1019 30.09 848 25.04 6.3 43.4 44 -5.2 22.7
02:05 1019 30.09 848 25.04 6.4 43.5 44 -5.1 22.8
02:10 1019 30.09 848 25.04 6.2 43.2 44 -5.1 22.9
02:15 1019 30.09 848 25.04 5.9 42.7 44 -5.3 22.5
02:20 1019 30.09 848 25.04 6.1 43 43 -5.4 22.2
02:25 1019 30.09 848 25.04 6.4 43.4 43 -5.4 22.4
02:30 1019 30.09 848 25.04 6.1 42.9 44 -5.2 22.7
02:35 1019 30.09 848 25.04 6 42.8 44 -5.4 22.3
02:40 1019 30.09 848 25.04 5.9 42.7 44 -5.3 22.5
02:45 1019 30.09 848 25.04 6.1 43 44 -5.3 22.4
02:50 1019 30.09 848 25.04 6.1 43 45 -5 23
02:55 1019 30.09 848 25.04 5.7 42.3 46 -4.9 23.1
03:00 1019 30.09 848 25.04 5.7 42.3 46 -5.1 22.8
03:05 1019 30.09 848 25.04 5.7 42.3 46 -5.1 22.8
03:10 1019 30.09 848 25.04 6.5 43.6 42 -5.6 22
03:15 1019 30.09 848 25.04 6.8 44.2 42 -5.3 22.5
03:20 1019 30.09 848 25.04 7 44.6 41 -5.3 22.5
03:25 1019 30.09 848 25.04 6.9 44.4 42 -5.1 22.9
03:30 1019 30.09 848 25.04 6.3 43.3 44 -5 23
03:35 1019 30.09 848 25.04 5.7 42.2 47 -4.9 23.3
03:40 1019 30.09 848 25.04 5.2 41.3 48 -5.1 22.9
03:45 1019 30.09 848 25.04 5.5 41.8 45 -5.6 21.9
03:50 1019 30.09 848 25.04 5.9 42.7 43 -5.8 21.5
03:55 1019 30.09 848 25.04 6.1 42.9 43 -5.5 22.1
04:00 1019 30.09 848 25.04 6.3 43.3 40 -6.3 20.7
04:05 1019 30.09 848 25.04 6.8 44.2 40 -5.9 21.3
04:10 1019 30.09 848 25.04 6.5 43.8 40 -6 21.2
04:15 1019 30.09 848 25.04 6.4 43.5 42 -5.7 21.8
04:20 1019 30.09 848 25.04 5.6 42.1 43 -5.9 21.4
04:25 1019 30.09 848 25.04 5.6 42 43 -6 21.2
04:30 1019 30.09 848 25.04 5.9 42.6 43 -5.9 21.4
04:35 1019 30.09 848 25.04 6 42.8 43 -5.7 21.7
04:40 1019 30.09 848 25.04 6 42.7 43 -5.6 21.9
04:45 1019 30.09 848 25.04 6 42.8 42 -6 21.1
04:50 1019 30.09 848 25.04 6.3 43.4 42 -5.7 21.8
04:55 1019 30.09 848 25.04 6.3 43.3 43 -5.5 22
05:00 1019 30.09 848 25.04 5.9 42.7 45 -5.2 22.6
05:05 1019 30.09 848 25.04 5.7 42.2 45 -5.3 22.4
05:10 1019 30.09 848 25.04 5.4 41.7 46 -5.3 22.4
05:15 1019 30.09 848 25.04 5.3 41.6 44 -5.8 21.5
05:20 1019 30.09 848 25.04 4.7 40.5 49 -5.2 22.7
05:25 1019 30.09 848 25.04 3.6 38.6 52 -5.2 22.6
05:30 1019 30.09 848 25.04 3.4 38 50 -6.2 20.9
05:35 1019 30.09 848 25.04 4.7 40.5 45 -6.3 20.7
05:40 1019 30.09 848 25.04 5.4 41.8 45 -5.7 21.7
05:45 1019 30.09 848 25.04 5.4 41.6 46 -5.5 22.2
05:50 1019 30.09 848 25.04 4.9 40.8 47 -5.4 22.3
05:55 1019 30.09 848 25.04 4.8 40.7 47 -5.6 21.9
06:00 1018 30.06 848 25.04 4.9 40.8 47 -5.5 22.2
06:05 1018 30.06 848 25.04 4.9 40.8 47 -5.4 22.3
06:10 1018 30.06 848 25.04 4.7 40.5 48 -5.3 22.5
06:15 1018 30.06 847 25.01 4.6 40.2 49 -5.3 22.5
06:20 1018 30.06 847 25.01 4.3 39.8 50 -5.2 22.6
06:25 1018 30.06 847 25.01 4 39.2 50 -5.5 22.2
06:30 1018 30.06 847 25.01 4.1 39.5 49 -5.7 21.7
06:35 1018 30.06 847 25.01 4.5 40.1 48 -5.7 21.7
06:40 1018 30.06 847 25.01 4.7 40.5 48 -5.5 22.2
06:45 1018 30.06 847 25.01 4.8 40.6 48 -5.4 22.3
06:50 1018 30.06 847 25.01 4.9 40.9 47 -5.3 22.4
06:55 1018 30.06 847 25.01 4.8 40.6 48 -5.3 22.5
07:00 1018 30.06 847 25.01 4.7 40.5 48 -5.3 22.4
07:05 1018 30.06 847 25.01 4.8 40.6 48 -5.3 22.5
07:10 1018 30.06 847 25.01 4.6 40.3 49 -5.3 22.4
07:15 1018 30.06 847 25.01 4.4 40 49 -5.3 22.5
07:20 1018 30.06 847 25.01 4.7 40.4 47 -5.6 21.9
07:25 1018 30.06 847 25.01 5.2 41.3 46 -5.6 22
07:30 1018 30.06 847 25.01 5.2 41.4 47 -5.3 22.5
07:35 1018 30.06 847 25.01 4.9 40.8 47 -5.4 22.4
07:40 1018 30.06 847 25.01 4.9 40.7 48 -5.2 22.6
07:45 1018 30.06 847 25.01 4.8 40.7 49 -5.1 22.8
07:50 1018 30.06 847 25.01 4.8 40.6 49 -5 23
07:55 1018 30.06 847 25.01 4.7 40.5 49 -5.2 22.7
08:00 1018 30.06 847 25.01 4.6 40.3 49 -5.3 22.4
08:05 1018 30.06 847 25.01 4.1 39.4 48 -5.8 21.5
08:10 1018 30.06 847 25.01 4.5 40.1 47 -5.9 21.3
08:15 1018 30.06 847 25.01 4.8 40.7 46 -5.9 21.3
08:20 1018 30.06 847 25.01 4.7 40.4 47 -5.6 21.9
08:25 1018 30.06 847 25.01 4 39.2 49 -5.7 21.7
08:30 1018 30.06 847 25.01 3.7 38.6 52 -5.3 22.4
08:35 1018 30.06 847 25.01 3.4 38.1 53 -5.3 22.4
08:40 1018 30.06 847 25.01 3.1 37.7 54 -5.3 22.5
08:45 1018 30.06 847 25.01 2.7 36.9 55 -5.4 22.3
08:50 1018 30.06 848 25.04 2.6 36.7 56 -5.3 22.5
08:55 1018 30.06 847 25.01 1.9 35.5 57 -5.6 21.8
09:00 1018 30.06 847 25.01 2.5 36.5 54 -5.9 21.4
09:05 1018 30.06 847 25.01 3.1 37.6 53 -5.6 21.9
09:10 1018 30.06 847 25.01 3.3 37.9 52 -5.7 21.8
09:15 1018 30.06 847 25.01 3.4 38.1 52 -5.6 22
09:20 1018 30.06 847 25.01 4 39.2 47 -6.3 20.6
09:25 1018 30.06 847 25.01 4.8 40.7 46 -5.9 21.4
09:30 1018 30.06 847 25.01 4.8 40.7 44 -6.4 20.5
09:35 1018 30.06 848 25.04 5.1 41.1 46 -5.5 22.1
09:40 1018 30.06 848 25.04 4.8 40.7 46 -5.9 21.3
09:45 1018 30.06 848 25.04 4.8 40.7 45 -6.2 20.8
09:50 1018 30.06 848 25.04 5.2 41.4 44 -6.1 21
09:55 1018 30.06 848 25.04 5.4 41.7 43 -6.2 20.8
10:00 1018 30.06 848 25.04 5.7 42.2 42 -6.2 20.9
10:05 1018 30.06 848 25.04 5.7 42.2 44 -5.7 21.7
10:10 1018 30.06 848 25.04 5.1 41.3 46 -5.6 22
10:15 1018 30.06 848 25.04 5 41 46 -5.7 21.7
10:20 1019 30.09 848 25.04 5.3 41.5 44 -6.1 21.1
10:25 1019 30.09 848 25.04 5.8 42.4 40 -6.6 20.1
10:30 1019 30.09 848 25.04 6.9 44.5 38 -6.5 20.3
10:35 1019 30.09 848 25.04 7.7 45.8 38 -5.7 21.8
10:40 1018 30.06 848 25.04 7.4 45.3 37 -6.2 20.9
10:45 1018 30.06 848 25.04 7.7 45.8 38 -5.6 21.8
10:50 1018 30.06 848 25.04 7.8 46.1 38 -5.6 21.9
10:55 1018 30.06 848 25.04 8.5 47.3 35 -5.9 21.3
11:00 1018 30.06 848 25.04 8.8 47.9 35 -5.8 21.5
11:05 1018 30.06 848 25.04 9.6 49.3 33 -5.7 21.8
11:10 1018 30.06 848 25.04 10 49.9 32 -5.9 21.4
11:15 1018 30.06 848 25.04 10.1 50.2 33 -5.6 22
11:20 1018 30.06 848 25.04 9.9 49.9 33 -5.6 22
11:25 1018 30.06 848 25.04 10.2 50.4 33 -5.5 22.2
11:30 1018 30.06 848 25.04 10.1 50.1 33 -5.3 22.5
11:35 1018 30.06 848 25.04 9.9 49.7 34 -5.3 22.5
11:40 1018 30.06 848 25.04 9.8 49.7 34 -5.3 22.4
11:45 1018 30.06 847 25.01 10 49.9 35 -4.9 23.2
11:50 1018 30.06 847 25.01 10.2 50.4 34 -4.9 23.3
11:55 1018 30.06 847 25.01 10.4 50.7 36 -4.1 24.6
12:00 1018 30.06 847 25.01 9.9 49.8 35 -4.7 23.6
12:05 1018 30.06 847 25.01 10.2 50.3 35 -4.5 23.9
12:10 1018 30.06 847 25.01 10.2 50.4 35 -4.6 23.7
12:15 1018 30.06 847 25.01 10 50 36 -4.4 24.1
12:20 1018 30.06 847 25.01 9.8 49.7 37 -4.3 24.2
12:25 1018 30.06 847 25.01 10.1 50.1 35 -4.5 23.8
12:30 1018 30.06 847 25.01 10.7 51.3 34 -4.4 24.1
12:35 1018 30.06 847 25.01 11 51.7 35 -4.1 24.7
12:40 1018 30.06 847 25.01 10 50 38 -3.6 25.6
12:45 1018 30.06 847 25.01 9.5 49.2 36 -4.9 23.2
12:50 1018 30.06 847 25.01 9.7 49.4 36 -4.5 23.8
12:55 1018 30.06 847 25.01 9.8 49.6 36 -4.6 23.8
13:00 1018 30.06 847 25.01 10.1 50.1 34 -5 23
13:05 1018 30.06 847 25.01 10.2 50.4 35 -4.4 24.1
13:10 1018 30.06 847 25.01 10.1 50.2 35 -4.6 23.8
13:15 1018 30.06 847 25.01 9.9 49.7 37 -4.1 24.6
13:20 1018 30.06 847 25.01 9.8 49.6 37 -4.2 24.4
13:25 1018 30.06 847 25.01 9.7 49.4 38 -3.9 25
13:30 1018 30.06 847 25.01 8.9 48 40 -3.8 25.1
13:35 1018 30.06 847 25.01 8.1 46.6 43 -3.8 25.1
13:40 1018 30.06 847 25.01 8.3 46.9 42 -3.9 25
13:45 1018 30.06 847 25.01 8.1 46.6 42 -3.9 25
13:50 1017 30.03 847 25.01 8.1 46.5 42 -4 24.8
13:55 1017 30.03 847 25.01 8.5 47.3 43 -3.4 25.9
14:00 1017 30.03 847 25.01 8.8 47.8 43 -3.1 26.5
14:05 1017 30.03 847 25.01 8.4 47.1 45 -2.9 26.7
14:10 1017 30.03 846 24.98 8.8 47.8 40 -3.9 24.9
14:15 1017 30.03 846 24.98 9.2 48.5 44 -2.4 27.6
14:20 1017 30.03 846 24.98 9.3 48.7 43 -2.6 27.3
14:25 1017 30.03 846 24.98 9.7 49.5 39 -3.6 25.5
14:30 1017 30.03 846 24.98 9.9 49.7 36 -4.4 24
14:35 1017 30.03 846 24.98 9.9 49.8 37 -4.2 24.5
14:40 1017 30.03 846 24.98 9.7 49.4 37 -4.3 24.2
14:45 1017 30.03 846 24.98 9.7 49.4 35 -5 23
14:50 1017 30.03 846 24.98 9.7 49.4 35 -5 23
14:55 1017 30.03 846 24.98 9.9 49.8 34 -5.2 22.6
15:00 1017 30.03 846 24.98 10.4 50.7 33 -5.1 22.9
15:05 1017 30.03 846 24.98 11 51.8 33 -4.8 23.4
15:10 1017 30.03 846 24.98 11 51.8 32 -5.1 22.9
15:15 1017 30.03 846 24.98 11.2 52.1 32 -4.8 23.4
15:20 1017 30.03 846 24.98 11.1 52.1 33 -4.7 23.6
15:25 1017 30.03 846 24.98 11.1 51.9 32 -4.9 23.2
15:30 1017 30.03 846 24.98 11.2 52.2 32 -5 23.1
15:35 1017 30.03 846 24.98 11.3 52.4 32 -4.9 23.2
15:40 1017 30.03 846 24.98 11.2 52.1 32 -4.9 23.1
15:45 1017 30.03 846 24.98 10.9 51.7 34 -4.4 24.1
15:50 1017 30.03 846 24.98 11.1 51.9 34 -4 24.8
15:55 1016 30 846 24.98 11.1 52 33 -4.7 23.6
16:00 1016 30 846 24.98 10.7 51.3 33 -4.8 23.4
16:05 1016 30 846 24.98 10.7 51.3 35 -4.1 24.7
16:10 1016 30 846 24.98 10.8 51.4 36 -3.6 25.6
16:15 1016 30 846 24.98 10.8 51.4 35 -4.1 24.6
16:20 1016 30 845 24.95 10.7 51.3 35 -4.2 24.4
16:25 1016 30 845 24.95 10.5 50.8 35 -4.5 24
16:30 1016 30 845 24.95 10.4 50.7 34 -4.8 23.4
16:35 1016 30 845 24.95 10.2 50.4 34 -5.1 22.9
16:40 1016 30 845 24.95 10.5 51 33 -4.9 23.1
16:45 1016 30 845 24.95 11 51.8 32 -5 23
16:50 1016 30 845 24.95 11.3 52.3 33 -4.5 23.9
16:55 1016 30 845 24.95 11.1 52 34 -4.2 24.4
17:00 1016 30 845 24.95 11.2 52.1 33 -4.5 24
17:05 1016 30 845 24.95 10.8 51.5 33 -4.8 23.4
17:10 1016 30 845 24.95 11.1 52.1 32 -5.1 22.9
17:15 1016 30 845 24.95 11.3 52.3 32 -4.9 23.2
17:20 1016 30 845 24.95 11.5 52.7 32 -4.4 24.1
17:25 1016 30 845 24.95 11.2 52.2 34 -4.2 24.5
17:30 1016 30 845 24.95 10.6 51 35 -4.1 24.7
17:35 1016 30 845 24.95 10.4 50.8 35 -4.3 24.3
17:40 1016 30 845 24.95 10.3 50.5 35 -4.5 23.9
17:45 1016 30 845 24.95 10.1 50.2 35 -4.5 23.9
17:50 1016 30 845 24.95 9.9 49.9 36 -4.3 24.2
17:55 1016 30 845 24.95 9.7 49.4 37 -4.2 24.4
18:00 1016 30 845 24.95 9.4 48.9 37 -4.4 24.1
18:05 1016 30 845 24.95 9.1 48.5 39 -4.2 24.4
18:10 1016 30 845 24.95 9 48.1 39 -4.2 24.4
18:15 1016 30 845 24.95 8.8 47.8 39 -4.3 24.2
18:20 1016 30 845 24.95 8.6 47.5 39 -4.6 23.7
18:25 1016 30 845 24.95 8.8 47.8 38 -4.6 23.7
18:30 1016 30 845 24.95 8.8 47.8 40 -4.2 24.5
18:35 1016 30 845 24.95 8.5 47.2 40 -4.4 24.1
18:40 1016 30 845 24.95 8.2 46.8 41 -4.3 24.3
18:45 1016 30 845 24.95 8 46.5 42 -4 24.8
18:50 1016 30 845 24.95 7.9 46.3 44 -3.6 25.5
18:55 1016 30 845 24.95 7.8 46 45 -3.5 25.8
19:00 1016 30 845 24.95 7.8 46 44 -3.6 25.4
19:05 1016 30 845 24.95 7.9 46.2 44 -3.6 25.4
19:10 1016 30 845 24.95 7.9 46.1 44 -3.6 25.5
19:15 1016 30 845 24.95 7.8 46.1 45 -3.3 26
19:20 1016 30 845 24.95 7.5 45.4 47 -3.1 26.4
19:25 1016 30 845 24.95 7 44.7 47 -3.5 25.7
19:30 1016 30 845 24.95 7.2 44.9 45 -3.8 25.1
19:35 1016 30 845 24.95 7.5 45.5 44 -4 24.8
19:40 1016 30 845 24.95 7.7 45.8 44 -3.7 25.4
19:45 1016 30 845 24.95 7.4 45.3 48 -2.9 26.8
19:50 1016 30 845 24.95 6.9 44.4 48 -3.3 26
19:55 1016 30 846 24.98 6.9 44.4 46 -3.8 25.2
20:00 1016 30 846 24.98 6.9 44.4 46 -4 24.9
20:05 1016 30 846 24.98 6.9 44.4 47 -3.7 25.4
20:10 1017 30.03 846 24.98 6.8 44.2 49 -3.3 26.1
20:15 1017 30.03 846 24.98 6.8 44.2 47 -3.8 25.1
20:20 1017 30.03 846 24.98 7 44.6 47 -3.5 25.8
20:25 1017 30.03 846 24.98 7 44.7 44 -4.3 24.2
20:30 1016 30 846 24.98 7.2 45 46 -3.6 25.5
20:35 1016 30 846 24.98 6.9 44.4 47 -3.6 25.6
20:40 1016 30 846 24.98 6.6 43.9 50 -3 26.6
20:45 1016 30 846 24.98 6.1 43 53 -2.8 27
20:50 1017 30.03 846 24.98 5.6 42 55 -2.8 27
20:55 1017 30.03 846 24.98 5.4 41.7 53 -3.4 25.9
21:00 1017 30.03 846 24.98 5.3 41.5 55 -3.1 26.4
21:05 1017 30.03 846 24.98 5.4 41.8 53 -3.3 26.1
21:10 1017 30.03 846 24.98 5.7 42.2 53 -3.2 26.2
21:15 1017 30.03 846 24.98 5.9 42.6 52 -3.2 26.2
21:20 1017 30.03 846 24.98 6.1 42.9 51 -3.3 26.1
21:25 1017 30.03 846 24.98 6.4 43.5 49 -3.5 25.7
21:30 1016 30 846 24.98 6.6 43.9 47 -3.9 24.9
21:35 1016 30 846 24.98 6.9 44.4 46 -3.8 25.2
21:40 1016 30 846 24.98 6.8 44.2 50 -3 26.6
21:45 1017 30.03 846 24.98 5.8 42.5 54 -2.7 27.2
21:50 1017 30.03 846 24.98 4.9 40.7 60 -2.2 28.1
21:55 1017 30.03 846 24.98 4.3 39.7 58 -3.2 26.2
22:00 1017 30.03 846 24.98 5 41 54 -3.4 25.9
22:05 1017 30.03 846 24.98 5.6 42.1 52 -3.5 25.7
22:10 1017 30.03 846 24.98 5.9 42.6 53 -2.9 26.7
22:15 1017 30.03 846 24.98 5.7 42.3 55 -2.7 27.1
22:20 1017 30.03 846 24.98 5.7 42.2 54 -2.9 26.7
22:25 1017 30.03 846 24.98 5.8 42.5 53 -2.9 26.8
22:30 1017 30.03 846 24.98 5.9 42.6 53 -2.8 26.9
22:35 1017 30.03 846 24.98 5.8 42.5 54 -2.8 27
22:40 1017 30.03 846 24.98 5.7 42.2 55 -2.7 27.2
22:45 1017 30.03 846 24.98 5.6 42.1 54 -2.9 26.8
22:50 1017 30.03 846 24.98 5.8 42.5 54 -2.8 26.9
22:55 1017 30.03 846 24.98 6.1 42.9 53 -2.9 26.8
23:00 1017 30.03 846 24.98 6.5 43.7 50 -3 26.6
23:05 1017 30.03 846 24.98 6.6 43.9 51 -2.7 27.2
23:10 1017 30.03 846 24.98 6.5 43.7 51 -2.9 26.9
23:15 1017 30.03 846 24.98 6.5 43.7 53 -2.4 27.7
23:20 1017 30.03 846 24.98 6.1 43 54 -2.6 27.3
23:25 1017 30.03 846 24.98 6 42.8 54 -2.6 27.4
23:30 1017 30.03 846 24.98 6 42.8 53 -2.8 26.9
23:35 1017 30.03 846 24.98 6.2 43.2 51 -3.1 26.4
23:40 1017 30.03 846 24.98 6.8 44.2 50 -2.9 26.7
23:45 1017 30.03 846 24.98 7 44.6 49 -2.9 26.9
23:50 1017 30.03 846 24.98 7.1 44.7 49 -2.8 26.9
23:55 1017 30.03 846 24.98 6.7 44.1 52 -2.4 27.6
24:00 1017 30.03 846 24.98 6.1 42.9 54 -2.6 27.4